Time;durP1;ratioP1;P1;durP2;ratioP2;P2;SDS_P1;SDS_P2;PMS_P1;PMS_P2;Temp;Humidity;BMP_temperature;BMP_pressure;BME280_temperature;BME280_humidity;BME280_pressure;Samples;Min_cycle;Max_cycle;Signal;HPM_P1;HPM_P2
2022/09/23 00:01:10;;;;;;;;;;;;;;;16.68;54.67;100940.44;5016095;28;1179;-48
2022/09/23 00:03:37;;;;;;;;;;;;;;;16.46;54.78;100939.81;5016118;28;1116;-47
2022/09/23 00:06:06;;;;;;;;;;;;;;;16.25;55.43;100942.47;5015981;28;1144;-48
2022/09/23 00:08:32;;;;;;;;;;;;;;;16.17;55.30;100937.50;5015900;28;1479;-45
2022/09/23 00:11:02;;;;;;;;;;;;;;;17.61;52.56;100937.81;4998112;28;1906;-44
2022/09/23 00:13:28;;;;;;;;;;;;;;;16.91;53.98;100952.06;5016276;28;1105;-45
2022/09/23 00:15:53;;;;;;;;;;;;;;;16.51;54.80;100950.81;5015508;28;1503;-44
2022/09/23 00:18:19;;;;;;;;;;;;;;;16.29;55.13;100943.59;5016081;28;899;-48
2022/09/23 00:20:45;;;;;;;;;;;;;;;16.49;55.11;100942.84;5017157;28;1124;-47
2022/09/23 00:23:10;;;;;;;;;;;;;;;17.49;52.52;100951.00;5019717;28;1140;-48
2022/09/23 00:25:36;;;;;;;;;;;;;;;16.70;54.46;100951.16;5019985;28;1104;-45
2022/09/23 00:28:02;;;;;;;;;;;;;;;16.40;54.97;100948.03;5019426;28;1214;-45
2022/09/23 00:30:28;;;;;;;;;;;;;;;16.31;55.47;100949.63;5019220;28;860;-49
2022/09/23 00:32:55;;;;;;;;;;;;;;;17.74;51.94;100947.41;5019823;28;1905;-48
2022/09/23 00:35:21;;;;;;;;;;;;;;;16.84;54.21;100951.47;5019650;28;1156;-46
2022/09/23 00:37:46;;;;;;;;;;;;;;;16.52;54.81;100947.81;5019282;28;1140;-48
2022/09/23 00:40:12;;;;;;;;;;;;;;;16.36;54.83;100937.88;5019047;28;1269;-49
2022/09/23 00:42:37;;;;;;;;;;;;;;;16.36;55.20;100946.09;5019445;28;897;-46
2022/09/23 00:45:03;;;;;;;;;;;;;;;17.84;51.59;100938.31;5001498;28;1477;-48
2022/09/23 00:47:31;;;;;;;;;;;;;;;16.93;53.89;100945.19;5019672;28;1140;-47
2022/09/23 00:50:09;;;;;;;;;;;;;;;16.56;54.50;100945.34;5019424;28;1156;-46
2022/09/23 00:52:34;;;;;;;;;;;;;;;16.39;55.09;100945.56;5019217;28;1906;-46
2022/09/23 00:55:01;;;;;;;;;;;;;;;16.57;54.94;100947.81;5018980;28;919;-45
2022/09/23 00:57:26;;;;;;;;;;;;;;;17.72;51.79;100942.19;5001912;28;1132;-47
2022/09/23 00:59:51;;;;;;;;;;;;;;;16.79;54.13;100945.94;5019061;28;1239;-50
2022/09/23 01:02:19;;;;;;;;;;;;;;;16.53;54.55;100946.69;5018972;28;1167;-46
2022/09/23 01:04:45;;;;;;;;;;;;;;;16.32;55.14;100944.97;5002437;28;1191;-49
2022/09/23 01:07:12;;;;;;;;;;;;;;;16.18;55.19;100947.38;5001190;28;883;-50
2022/09/23 01:09:37;;;;;;;;;;;;;;;17.24;53.24;100944.41;5019198;28;1152;-45
2022/09/23 01:12:08;;;;;;;;;;;;;;;17.30;52.67;100948.81;5018666;28;1898;-48
2022/09/23 01:15:00;;;;;;;;;;;;;;;16.64;54.44;100944.81;5001371;28;1168;-43
2022/09/23 01:17:30;;;;;;;;;;;;;;;16.38;54.84;100942.00;5014060;28;1160;-49
2022/09/23 01:20:12;;;;;;;;;;;;;;;16.48;54.80;100941.22;5001386;28;1160;-47
2022/09/23 01:22:41;;;;;;;;;;;;;;;17.36;52.68;100944.13;5000871;28;1104;-49
2022/09/23 01:25:20;;;;;;;;;;;;;;;16.69;54.35;100936.59;5001381;28;1132;-45
2022/09/23 01:27:53;;;;;;;;;;;;;;;16.36;54.76;100952.41;5004168;28;1120;-48
2022/09/23 01:30:27;;;;;;;;;;;;;;;16.19;55.25;100940.81;5016731;28;1156;-48
2022/09/23 01:33:06;;;;;;;;;;;;;;;16.11;55.27;100942.13;5018040;28;1910;-44
2022/09/23 01:35:33;;;;;;;;;;;;;;;17.72;51.97;100944.13;5018586;28;1100;-44
2022/09/23 01:38:15;;;;;;;;;;;;;;;16.86;53.70;100947.34;5018169;28;1191;-46
2022/09/23 01:40:41;;;;;;;;;;;;;;;16.48;54.63;100943.97;5017285;28;1124;-48
2022/09/23 01:43:10;;;;;;;;;;;;;;;16.28;54.93;100950.16;5018281;28;837;-45
2022/09/23 01:45:42;;;;;;;;;;;;;;;17.68;51.98;100941.09;5019089;28;1155;-45
2022/09/23 01:48:20;;;;;;;;;;;;;;;16.76;54.04;100950.91;5018361;28;1198;-50
2022/09/23 01:50:56;;;;;;;;;;;;;;;16.46;54.83;100956.28;5018166;28;1190;-45
2022/09/23 01:53:31;;;;;;;;;;;;;;;16.27;54.80;100953.19;5017071;28;1096;-46
2022/09/23 01:55:59;;;;;;;;;;;;;;;17.14;53.18;100952.63;5017831;28;1349;-48
2022/09/23 01:58:41;;;;;;;;;;;;;;;17.19;53.12;100956.22;5017685;28;1120;-45
2022/09/23 02:01:06;;;;;;;;;;;;;;;16.56;54.61;100957.16;5017303;28;1100;-47
2022/09/23 02:03:54;;;;;;;;;;;;;;;16.35;54.56;100960.91;5017857;28;1119;-49
2022/09/23 02:06:19;;;;;;;;;;;;;;;16.46;54.68;100962.59;5017666;28;1068;-48
2022/09/23 02:08:46;;;;;;;;;;;;;;;17.72;51.62;100944.94;5018133;28;1132;-47
2022/09/23 02:11:14;;;;;;;;;;;;;;;16.79;53.76;100956.94;5016549;28;1905;-45
2022/09/23 02:13:59;;;;;;;;;;;;;;;16.50;54.51;100960.16;5016264;28;1195;-46
2022/09/23 02:16:29;;;;;;;;;;;;;;;16.82;54.10;100967.41;5018291;28;1111;-45
2022/09/23 02:19:00;;;;;;;;;;;;;;;17.38;52.28;100964.75;4999878;28;1196;-46
2022/09/23 02:21:28;;;;;;;;;;;;;;;16.70;54.10;100957.47;5017213;28;1190;-47
2022/09/23 02:23:58;;;;;;;;;;;;;;;16.46;54.37;100953.53;5009725;28;1108;-49
2022/09/23 02:26:33;;;;;;;;;;;;;;;16.29;54.66;100951.00;5016469;28;1314;-48
2022/09/23 02:29:10;;;;;;;;;;;;;;;17.15;53.29;100940.56;5015925;28;1108;-48
2022/09/23 02:31:52;;;;;;;;;;;;;;;17.10;52.81;100944.94;5016143;28;1977;-47
2022/09/23 02:34:27;;;;;;;;;;;;;;;16.57;54.27;100936.03;5017033;28;1123;-45
2022/09/23 02:37:16;;;;;;;;;;;;;;;16.44;54.49;100945.59;5017147;28;1087;-48
2022/09/23 02:39:50;;;;;;;;;;;;;;;17.50;52.09;100938.91;5014855;28;1163;-49
2022/09/23 02:42:18;;;;;;;;;;;;;;;16.75;53.72;100940.19;5017180;28;1258;-47
2022/09/23 02:44:43;;;;;;;;;;;;;;;16.48;54.24;100943.97;5016707;28;1112;-49
2022/09/23 02:47:09;;;;;;;;;;;;;;;16.31;54.64;100944.13;5017173;28;1167;-44
2022/09/23 02:49:35;;;;;;;;;;;;;;;17.14;52.93;100945.25;5017301;28;1124;-48
2022/09/23 02:52:03;;;;;;;;;;;;;;;17.23;52.38;100949.06;5016664;28;1973;-49
2022/09/23 02:54:29;;;;;;;;;;;;;;;16.63;54.07;100954.16;5016683;28;1159;-45
2022/09/23 02:56:56;;;;;;;;;;;;;;;16.38;54.70;100963.94;5022212;28;1087;-48
2022/09/23 02:59:21;;;;;;;;;;;;;;;16.29;54.66;100971.03;5016547;28;1190;-45
2022/09/23 03:01:59;;;;;;;;;;;;;;;17.77;51.32;100961.44;5015862;28;1144;-45
2022/09/23 03:04:25;;;;;;;;;;;;;;;16.80;53.81;100964.09;5017058;28;1373;-50
2022/09/23 03:06:58;;;;;;;;;;;;;;;16.51;54.24;100968.13;5016715;28;1170;-46
2022/09/23 03:09:31;;;;;;;;;;;;;;;16.53;54.56;100965.09;5017571;28;1120;-45
2022/09/23 03:12:04;;;;;;;;;;;;;;;17.53;51.66;100963.09;5015483;28;1909;-47
2022/09/23 03:14:37;;;;;;;;;;;;;;;16.71;54.03;100970.09;5016695;28;1119;-43
2022/09/23 03:17:21;;;;;;;;;;;;;;;16.42;54.60;100973.31;5015447;28;1092;-46
2022/09/23 03:20:05;;;;;;;;;;;;;;;17.32;52.38;100971.38;5016563;28;855;-46
2022/09/23 03:22:31;;;;;;;;;;;;;;;17.01;52.97;100970.47;5015883;28;1152;-49
2022/09/23 03:25:06;;;;;;;;;;;;;;;16.57;53.96;100974.44;5016825;28;1108;-50
2022/09/23 03:27:31;;;;;;;;;;;;;;;16.35;54.54;100971.88;5014950;28;1215;-47
2022/09/23 03:29:56;;;;;;;;;;;;;;;16.33;54.43;100969.41;5015518;28;1097;-45
2022/09/23 03:32:22;;;;;;;;;;;;;;;17.73;51.33;100968.59;5014466;28;1960;-46
2022/09/23 03:34:49;;;;;;;;;;;;;;;16.84;53.31;100973.44;4998679;28;2244;-48
2022/09/23 03:37:16;;;;;;;;;;;;;;;16.45;54.30;100977.41;5001982;28;1183;-44
2022/09/23 03:39:55;;;;;;;;;;;;;;;16.29;54.51;100976.53;5016945;28;1257;-49
2022/09/23 03:42:21;;;;;;;;;;;;;;;17.56;51.87;100973.56;5014918;28;1160;-48
2022/09/23 03:44:47;;;;;;;;;;;;;;;17.00;53.02;100972.41;5015331;28;1021;-45
2022/09/23 03:47:13;;;;;;;;;;;;;;;16.58;54.06;100973.38;5014986;28;1168;-47
2022/09/23 03:49:39;;;;;;;;;;;;;;;16.36;54.62;100974.34;5016101;28;1313;-49
2022/09/23 03:52:05;;;;;;;;;;;;;;;16.22;54.54;100973.19;5015087;28;1902;-46
2022/09/23 03:54:31;;;;;;;;;;;;;;;17.55;51.99;100983.72;5016080;28;1279;-49
2022/09/23 03:56:57;;;;;;;;;;;;;;;16.96;53.40;100982.28;5018827;28;888;-45
2022/09/23 03:59:25;;;;;;;;;;;;;;;16.50;54.34;100984.84;5006449;28;1156;-47
2022/09/23 04:01:51;;;;;;;;;;;;;;;16.33;54.58;100979.56;5019990;28;1132;-48
2022/09/23 04:04:17;;;;;;;;;;;;;;;17.72;51.47;100993.63;5019765;28;1135;-50
2022/09/23 04:06:42;;;;;;;;;;;;;;;16.87;53.69;100989.38;5020003;28;1123;-44
2022/09/23 04:09:08;;;;;;;;;;;;;;;16.51;54.54;100991.97;5019877;28;1129;-48
2022/09/23 04:11:33;;;;;;;;;;;;;;;16.33;54.67;100985.06;5019666;28;1906;-48
2022/09/23 04:13:59;;;;;;;;;;;;;;;17.71;51.69;100984.56;5019705;28;1139;-47
2022/09/23 04:16:24;;;;;;;;;;;;;;;16.86;53.95;100987.75;5020230;28;1198;-48
2022/09/23 04:18:50;;;;;;;;;;;;;;;16.52;54.52;100997.22;5018946;28;1198;-48
2022/09/23 04:21:15;;;;;;;;;;;;;;;16.32;54.80;100988.88;5019860;28;1107;-50
2022/09/23 04:23:41;;;;;;;;;;;;;;;16.77;54.29;100996.50;5011627;28;1159;-48
2022/09/23 04:26:06;;;;;;;;;;;;;;;17.20;53.14;100995.53;5019437;28;1226;-46
2022/09/23 04:28:31;;;;;;;;;;;;;;;16.57;54.73;100993.66;5019310;28;1159;-49
2022/09/23 04:30:57;;;;;;;;;;;;;;;16.34;55.09;101000.41;5019664;28;1906;-47
2022/09/23 04:33:23;;;;;;;;;;;;;;;16.24;55.10;101003.91;5019489;28;1159;-47
2022/09/23 04:35:49;;;;;;;;;;;;;;;17.71;51.93;101005.72;5019397;28;1144;-46
2022/09/23 04:38:14;;;;;;;;;;;;;;;16.85;54.07;100999.81;5019397;28;1136;-47
2022/09/23 04:40:40;;;;;;;;;;;;;;;16.47;54.74;101001.88;5019682;28;1139;-47
2022/09/23 04:43:05;;;;;;;;;;;;;;;16.30;54.98;101002.88;5019202;28;1140;-47
2022/09/23 04:45:31;;;;;;;;;;;;;;;16.16;55.13;101004.41;5019754;28;1124;-50
2022/09/23 04:47:57;;;;;;;;;;;;;;;17.57;52.20;101003.53;5018936;28;1206;-51
2022/09/23 04:50:24;;;;;;;;;;;;;;;16.81;54.18;101007.75;5018928;28;1175;-48
2022/09/23 04:52:50;;;;;;;;;;;;;;;16.40;54.95;101010.34;5019356;28;1917;-49
2022/09/23 04:55:15;;;;;;;;;;;;;;;16.29;55.32;101005.88;5018860;28;1116;-47
2022/09/23 04:57:40;;;;;;;;;;;;;;;17.59;52.61;101009.56;5019036;28;1218;-47
2022/09/23 05:00:06;;;;;;;;;;;;;;;17.07;53.39;101005.94;5019082;28;1168;-50
2022/09/23 05:02:34;;;;;;;;;;;;;;;16.61;54.70;100994.78;5019418;28;1191;-48
2022/09/23 05:04:59;;;;;;;;;;;;;;;16.36;55.00;101001.78;5019338;28;993;-47
2022/09/23 05:07:25;;;;;;;;;;;;;;;16.22;55.15;100995.97;5018480;28;1160;-50
2022/09/23 05:09:50;;;;;;;;;;;;;;;17.23;53.44;100992.22;5018836;28;1136;-47
2022/09/23 05:12:16;;;;;;;;;;;;;;;16.96;53.70;100996.03;5018582;28;1987;-49
2022/09/23 05:14:41;;;;;;;;;;;;;;;16.51;54.78;101002.97;5019013;28;1421;-50
2022/09/23 05:17:07;;;;;;;;;;;;;;;17.03;54.11;101010.31;5019462;28;1155;-48
2022/09/23 05:19:32;;;;;;;;;;;;;;;17.24;53.07;100997.44;5000455;28;1140;-50
2022/09/23 05:21:58;;;;;;;;;;;;;;;16.67;54.67;101001.94;5018807;28;1243;-46
2022/09/23 05:24:23;;;;;;;;;;;;;;;16.42;55.21;101000.75;5019091;28;1128;-49
2022/09/23 05:26:49;;;;;;;;;;;;;;;16.53;55.09;100998.03;5018298;28;1054;-46
2022/09/23 05:29:15;;;;;;;;;;;;;;;17.33;53.12;101007.91;5018529;28;1089;-45
2022/09/23 05:31:40;;;;;;;;;;;;;;;16.67;54.83;101001.94;5004625;28;1914;-50
2022/09/23 05:34:05;;;;;;;;;;;;;;;16.46;55.03;101005.69;5018287;28;1177;-47
2022/09/23 05:36:32;;;;;;;;;;;;;;;16.25;55.30;101000.09;5018893;28;1200;-49
2022/09/23 05:38:57;;;;;;;;;;;;;;;17.23;53.54;101011.47;5018663;28;1029;-47
2022/09/23 05:41:23;;;;;;;;;;;;;;;17.62;52.41;101013.72;5017673;28;1211;-46
2022/09/23 05:43:50;;;;;;;;;;;;;;;16.78;53.01;101019.28;5017731;28;1155;-49
2022/09/23 05:46:19;;;;;;;;;;;;;;;18.49;51.13;101018.25;5018701;28;1215;-49
2022/09/23 05:48:46;;;;;;;;;;;;;;;17.43;52.23;101017.00;5017774;28;1203;-49
2022/09/23 05:51:16;;;;;;;;;;;;;;;17.00;51.17;101021.88;5018128;28;1905;-47
2022/09/23 05:53:44;;;;;;;;;;;;;;;16.64;50.50;101035.41;5018316;28;1143;-48
2022/09/23 05:56:10;;;;;;;;;;;;;;;18.00;52.19;101046.47;5018005;28;1171;-48
2022/09/23 05:58:36;;;;;;;;;;;;;;;17.10;52.26;101038.38;5018185;28;1149;-46
2022/09/23 06:01:07;;;;;;;;;;;;;;;17.59;52.32;101045.31;5017783;28;1179;-47
2022/09/23 06:03:33;;;;;;;;;;;;;;;18.01;51.90;101046.19;5018052;28;1198;-49
2022/09/23 06:05:59;;;;;;;;;;;;;;;17.23;51.64;101049.94;5017975;28;1179;-49
2022/09/23 06:08:24;;;;;;;;;;;;;;;16.99;50.23;101055.91;5017785;28;1155;-49
2022/09/23 06:10:50;;;;;;;;;;;;;;;17.12;50.58;101059.25;5017849;28;1176;-46
2022/09/23 06:13:15;;;;;;;;;;;;;;;17.50;51.67;101065.38;5000693;28;1909;-50
2022/09/23 06:15:43;;;;;;;;;;;;;;;17.17;51.62;101064.78;5017847;28;1140;-49
2022/09/23 06:18:08;;;;;;;;;;;;;;;18.89;50.53;101060.56;5016783;28;1156;-49
2022/09/23 06:20:34;;;;;;;;;;;;;;;14.62;60.61;101062.13;5017498;28;1226;-49
2022/09/23 06:23:09;;;;;;;;;;;;;;;16.63;53.57;101063.97;5017784;28;1226;-50
2022/09/23 06:25:35;;;;;;;;;;;;;;;17.55;53.18;101068.16;5000065;28;1251;-50
2022/09/23 06:28:00;;;;;;;;;;;;;;;17.02;51.78;101071.03;5017235;28;1131;-47
2022/09/23 06:30:26;;;;;;;;;;;;;;;16.84;50.41;101066.81;5017755;28;1152;-48
2022/09/23 06:32:52;;;;;;;;;;;;;;;17.82;51.93;101067.06;5016551;28;1921;-47
2022/09/23 06:35:18;;;;;;;;;;;;;;;17.21;51.11;101071.38;5017501;28;1215;-45
2022/09/23 06:37:43;;;;;;;;;;;;;;;17.38;51.77;101071.97;5017508;28;1168;-47
2022/09/23 06:40:09;;;;;;;;;;;;;;;17.52;51.88;101076.94;5017020;28;1211;-51
2022/09/23 06:42:34;;;;;;;;;;;;;;;17.04;51.00;101082.56;5017177;28;1156;-48
2022/09/23 06:45:00;;;;;;;;;;;;;;;17.02;50.45;101080.09;5017516;28;1200;-49
2022/09/23 06:47:26;;;;;;;;;;;;;;;18.17;51.29;101081.94;5016733;28;1124;-48
2022/09/23 06:49:51;;;;;;;;;;;;;;;17.32;51.31;101088.72;5017258;28;1112;-50
2022/09/23 06:52:19;;;;;;;;;;;;;;;17.09;49.79;101080.66;5016693;28;1910;-46
2022/09/23 06:54:46;;;;;;;;;;;;;;;18.02;51.32;101080.00;5016964;28;1195;-49
2022/09/23 06:57:12;;;;;;;;;;;;;;;17.28;51.37;101077.44;5016971;28;1144;-50
2022/09/23 06:59:38;;;;;;;;;;;;;;;17.12;50.06;101073.81;5017226;28;1176;-48
2022/09/23 07:02:03;;;;;;;;;;;;;;;16.91;48.96;101075.66;5016364;28;1163;-48
2022/09/23 07:04:29;;;;;;;;;;;;;;;16.87;48.39;101072.59;5016985;28;1175;-49
2022/09/23 07:06:54;;;;;;;;;;;;;;;17.76;49.99;101078.06;5017007;28;1120;-50
2022/09/23 07:09:20;;;;;;;;;;;;;;;17.07;50.04;101080.13;5016028;28;1140;-50
2022/09/23 07:11:46;;;;;;;;;;;;;;;17.78;50.30;101069.53;5016488;28;1989;-51
2022/09/23 07:14:12;;;;;;;;;;;;;;;17.83;50.77;101069.53;5016939;28;1148;-48
2022/09/23 07:16:38;;;;;;;;;;;;;;;17.23;50.25;101071.94;5016688;28;1219;-46
2022/09/23 07:19:03;;;;;;;;;;;;;;;17.73;50.50;101077.78;5016566;28;1124;-51
2022/09/23 07:21:29;;;;;;;;;;;;;;;17.42;50.56;101069.50;5016557;28;917;-50
2022/09/23 07:23:56;;;;;;;;;;;;;;;17.07;49.88;101068.31;5008539;28;1108;-46
2022/09/23 07:26:22;;;;;;;;;;;;;;;16.92;49.12;101063.59;5016659;28;1179;-50
2022/09/23 07:28:52;;;;;;;;;;;;;;;17.79;49.73;101069.28;5016696;28;1264;-51
2022/09/23 07:31:17;;;;;;;;;;;;;;;17.13;49.79;101067.22;5016711;28;1913;-50
2022/09/23 07:33:43;;;;;;;;;;;;;;;17.01;48.66;101067.47;5016183;28;910;-48
2022/09/23 07:36:09;;;;;;;;;;;;;;;18.00;49.53;101066.53;5016500;28;1171;-52
2022/09/23 07:38:35;;;;;;;;;;;;;;;17.32;49.50;101062.06;5016286;28;1105;-50
2022/09/23 07:41:04;;;;;;;;;;;;;;;17.01;49.09;101058.38;5016941;28;1144;-49
2022/09/23 07:43:31;;;;;;;;;;;;;;;17.86;49.55;101048.91;5016099;28;1151;-48
2022/09/23 07:45:57;;;;;;;;;;;;;;;17.28;49.63;101055.47;5016422;28;883;-49
2022/09/23 07:48:22;;;;;;;;;;;;;;;18.05;49.78;101052.78;5016215;28;1231;-50
2022/09/23 07:50:49;;;;;;;;;;;;;;;17.62;50.13;101054.94;5016421;28;1132;-51
2022/09/23 07:53:14;;;;;;;;;;;;;;;17.28;49.61;101055.47;5015893;28;1978;-50
2022/09/23 07:55:40;;;;;;;;;;;;;;;17.17;48.80;101042.78;5016381;28;1148;-49
2022/09/23 07:58:05;;;;;;;;;;;;;;;17.10;47.96;101051.28;4998731;28;935;-47
2022/09/23 08:00:32;;;;;;;;;;;;;;;17.67;48.93;101048.63;5016274;28;1213;-49
2022/09/23 08:02:57;;;;;;;;;;;;;;;17.36;49.67;101052.19;5015691;28;1112;-48
2022/09/23 08:05:24;;;;;;;;;;;;;;;17.08;48.97;101048.81;5016042;28;1140;-46
2022/09/23 08:07:49;;;;;;;;;;;;;;;16.95;48.17;101054.00;5015940;28;1140;-50
2022/09/23 08:10:19;;;;;;;;;;;;;;;17.95;49.25;101061.06;5015838;28;1188;-52
2022/09/23 08:12:45;;;;;;;;;;;;;;;17.19;49.63;101048.84;5016054;28;1902;-48
2022/09/23 08:15:11;;;;;;;;;;;;;;;17.02;48.75;101055.38;5015735;28;1092;-48
2022/09/23 08:17:36;;;;;;;;;;;;;;;17.78;49.18;101059.38;5015877;28;1191;-46
2022/09/23 08:20:02;;;;;;;;;;;;;;;17.15;49.05;101045.78;5016186;28;1262;-45
2022/09/23 08:22:28;;;;;;;;;;;;;;;17.43;49.06;101050.00;5015891;28;950;-46
2022/09/23 08:24:54;;;;;;;;;;;;;;;17.47;49.37;101050.25;5016078;28;1171;-48
2022/09/23 08:27:19;;;;;;;;;;;;;;;17.12;48.99;101040.84;5016271;28;1116;-49
2022/09/23 08:29:46;;;;;;;;;;;;;;;17.52;48.98;101041.22;5016297;28;1215;-49
2022/09/23 08:32:12;;;;;;;;;;;;;;;17.51;49.57;101042.28;5015342;28;1965;-50
2022/09/23 08:34:37;;;;;;;;;;;;;;;17.88;49.80;101036.53;5016173;28;907;-50
2022/09/23 08:37:03;;;;;;;;;;;;;;;17.26;52.77;101035.66;5015761;28;1184;-49
2022/09/23 08:39:29;;;;;;;;;;;;;;;16.09;54.55;101023.88;5015722;28;1128;-47
2022/09/23 08:42:12;;;;;;;;;;;;;;;17.32;51.92;101029.09;5017276;28;1171;-45
2022/09/23 08:44:41;;;;;;;;;;;;;;;17.58;51.21;101023.59;5019416;28;1199;-46
2022/09/23 08:47:06;;;;;;;;;;;;;;;17.16;50.35;101019.16;5018925;28;1038;-50
2022/09/23 08:49:34;;;;;;;;;;;;;;;17.10;49.00;101023.81;5019343;28;1199;-50
2022/09/23 08:52:01;;;;;;;;;;;;;;;16.89;48.52;101022.94;5019112;28;1980;-48
2022/09/23 08:54:27;;;;;;;;;;;;;;;17.28;49.22;101026.03;5019436;28;1116;-49
2022/09/23 08:56:54;;;;;;;;;;;;;;;17.54;50.18;101017.00;5001446;28;1311;-49
2022/09/23 08:59:27;;;;;;;;;;;;;;;17.13;49.59;101019.69;5001514;28;1037;-50
2022/09/23 09:02:00;;;;;;;;;;;;;;;17.00;48.52;101021.88;5019008;28;1136;-51
2022/09/23 09:04:34;;;;;;;;;;;;;;;18.12;49.34;101013.97;5001812;28;1271;-48
2022/09/23 09:07:06;;;;;;;;;;;;;;;17.36;49.64;101010.09;5019378;28;1144;-48
2022/09/23 09:09:32;;;;;;;;;;;;;;;17.07;49.15;101014.19;5018662;28;1217;-47
2022/09/23 09:12:18;;;;;;;;;;;;;;;17.89;49.27;101015.34;5001567;28;1969;-49
2022/09/23 09:14:50;;;;;;;;;;;;;;;17.24;49.47;101013.13;5018480;28;1296;-48
2022/09/23 09:17:24;;;;;;;;;;;;;;;17.10;48.52;101015.56;5018753;28;1167;-47
2022/09/23 09:19:51;;;;;;;;;;;;;;;17.83;49.04;101013.72;5018997;28;1092;-51
2022/09/23 09:22:21;;;;;;;;;;;;;;;17.29;49.50;101007.63;5011685;28;911;-50
2022/09/23 09:24:47;;;;;;;;;;;;;;;17.31;49.77;101005.44;5012762;28;1241;-49
2022/09/23 09:27:13;;;;;;;;;;;;;;;18.06;49.08;101004.91;5018590;28;1245;-49
2022/09/23 09:29:40;;;;;;;;;;;;;;;17.40;49.39;101008.47;5018785;28;1180;-50
2022/09/23 09:32:28;;;;;;;;;;;;;;;17.23;48.40;101011.47;5001325;28;1906;-47
2022/09/23 09:34:54;;;;;;;;;;;;;;;17.73;49.03;101015.34;5000842;28;962;-50
2022/09/23 09:37:28;;;;;;;;;;;;;;;17.51;49.80;101004.63;5000636;28;1203;-50
2022/09/23 09:39:55;;;;;;;;;;;;;;;17.22;48.72;101007.91;5018317;28;1155;-51
2022/09/23 09:42:25;;;;;;;;;;;;;;;18.01;49.37;101013.16;5018589;28;1195;-50
2022/09/23 09:45:00;;;;;;;;;;;;;;;17.44;49.40;101004.88;5018574;28;1148;-51
2022/09/23 09:47:29;;;;;;;;;;;;;;;17.19;48.89;101007.59;5018050;28;1112;-49
2022/09/23 09:50:04;;;;;;;;;;;;;;;17.21;47.98;101010.94;5018204;28;1168;-47
2022/09/23 09:52:30;;;;;;;;;;;;;;;17.69;49.54;101000.50;5018314;28;1985;-48
2022/09/23 09:55:14;;;;;;;;;;;;;;;17.31;49.05;100993.63;5018538;28;1172;-50
2022/09/23 09:58:00;;;;;;;;;;;;;;;17.12;48.24;101007.06;5017982;28;1279;-51
2022/09/23 10:00:26;;;;;;;;;;;;;;;17.70;49.00;101006.84;5018330;28;1203;-50
2022/09/23 10:02:52;;;;;;;;;;;;;;;17.37;48.76;101001.59;5018777;28;1195;-49
2022/09/23 10:05:24;;;;;;;;;;;;;;;18.74;48.20;101006.31;5018302;28;1160;-49
2022/09/23 10:07:50;;;;;;;;;;;;;;;14.46;58.50;101008.22;5017128;28;1183;-47
2022/09/23 10:10:23;;;;;;;;;;;;;;;17.15;52.01;101012.81;5017471;28;1211;-46
2022/09/23 10:12:49;;;;;;;;;;;;;;;17.71;50.75;100998.31;5017189;28;1902;-48
2022/09/23 10:15:31;;;;;;;;;;;;;;;17.31;50.26;101004.63;5017369;28;1469;-47
2022/09/23 10:18:00;;;;;;;;;;;;;;;17.10;48.95;100999.91;5018081;28;1152;-49
2022/09/23 10:20:25;;;;;;;;;;;;;;;17.86;49.84;100996.66;5017704;28;1148;-46
2022/09/23 10:22:51;;;;;;;;;;;;;;;17.41;50.02;100994.44;5016948;28;1101;-49
2022/09/23 10:25:19;;;;;;;;;;;;;;;17.15;49.15;100996.31;5017908;28;1183;-48
2022/09/23 10:27:45;;;;;;;;;;;;;;;17.44;49.26;100987.56;5002770;28;1237;-48
2022/09/23 10:30:21;;;;;;;;;;;;;;;17.48;49.59;100983.19;5016116;28;1073;-49
2022/09/23 10:32:46;;;;;;;;;;;;;;;18.20;49.38;100979.53;5017777;28;1973;-50
2022/09/23 10:35:20;;;;;;;;;;;;;;;16.13;55.98;100983.00;5016960;28;1218;-47
2022/09/23 10:37:49;;;;;;;;;;;;;;;16.52;52.74;100982.66;5017677;28;1127;-46
2022/09/23 10:46:44;;;;;;;;;;;;;;;17.58;51.04;100974.09;5017173;28;1191;-47
2022/09/23 10:49:30;;;;;;;;;;;;;;;17.37;50.96;100970.53;5002870;28;1269;-46
2022/09/23 10:52:10;;;;;;;;;;;;;;;17.28;49.44;100973.00;5015855;28;1906;-46
2022/09/23 10:54:40;;;;;;;;;;;;;;;17.08;48.64;100969.13;5017372;28;1461;-47
2022/09/23 10:59:59;;;;;;;;;;;;;;;17.47;49.68;100966.97;5016384;28;973;-47
2022/09/23 11:02:25;;;;;;;;;;;;;;;17.21;48.68;100961.47;5017088;28;1171;-47
2022/09/23 11:05:10;;;;;;;;;;;;;;;17.11;48.03;100967.78;5016805;28;1120;-47
2022/09/23 11:07:37;;;;;;;;;;;;;;;16.81;47.75;100961.06;5016711;28;1171;-46
2022/09/23 11:10:03;;;;;;;;;;;;;;;18.13;48.60;100966.91;5016711;28;1198;-47
2022/09/23 11:12:36;;;;;;;;;;;;;;;17.47;49.26;100961.47;5016865;28;1910;-49
2022/09/23 11:15:01;;;;;;;;;;;;;;;17.19;48.68;100955.41;5017050;28;1140;-47
2022/09/23 11:17:38;;;;;;;;;;;;;;;16.99;47.85;100953.47;5016824;28;1195;-47
2022/09/23 11:20:33;;;;;;;;;;;;;;;17.43;48.37;100951.03;5016528;28;1061;-49
2022/09/23 11:23:19;;;;;;;;;;;;;;;17.28;48.82;100942.78;4997026;28;1228;-49
2022/09/23 11:25:45;;;;;;;;;;;;;;;18.50;48.33;100942.00;5004183;28;1190;-48
2022/09/23 11:28:28;;;;;;;;;;;;;;;15.21;57.15;100937.34;5016452;28;1139;-47
2022/09/23 11:30:59;;;;;;;;;;;;;;;17.22;52.81;100941.94;5016826;28;1175;-50
2022/09/23 11:33:28;;;;;;;;;;;;;;;17.70;51.87;100930.66;4999466;28;1981;-45
2022/09/23 11:35:58;;;;;;;;;;;;;;;15.52;56.38;100932.94;4998598;28;886;-48
2022/09/23 11:38:28;;;;;;;;;;;;;;;16.66;52.18;100939.91;4998725;28;1242;-48
2022/09/23 11:41:13;;;;;;;;;;;;;;;17.45;51.81;100935.06;4999260;28;1136;-48
2022/09/23 11:43:39;;;;;;;;;;;;;;;17.09;50.08;100937.78;5015944;28;1419;-50
2022/09/23 11:46:23;;;;;;;;;;;;;;;16.97;49.30;100937.25;4998872;28;1286;-49
2022/09/23 11:48:49;;;;;;;;;;;;;;;17.73;49.95;100935.59;4995806;28;1069;-49
2022/09/23 11:51:15;;;;;;;;;;;;;;;17.19;49.71;100941.66;5008632;28;1897;-47
2022/09/23 11:53:45;;;;;;;;;;;;;;;17.52;50.01;100947.72;4998796;28;1116;-50
2022/09/23 11:56:31;;;;;;;;;;;;;;;17.58;50.49;100950.16;4998690;28;1156;-50
2022/09/23 11:59:02;;;;;;;;;;;;;;;17.16;49.55;100966.94;4998270;28;1180;-51
2022/09/23 12:01:30;;;;;;;;;;;;;;;17.72;49.95;100980.69;5016038;28;1156;-49
2022/09/23 12:04:02;;;;;;;;;;;;;;;17.50;49.93;100985.66;5016587;28;1116;-46
2022/09/23 12:06:38;;;;;;;;;;;;;;;17.04;49.35;100976.28;4998336;28;1337;-50
2022/09/23 12:09:07;;;;;;;;;;;;;;;17.00;48.55;100975.16;5016031;28;1089;-50
2022/09/23 12:11:35;;;;;;;;;;;;;;;18.31;49.21;100967.38;4998584;28;1902;-46
2022/09/23 12:14:24;;;;;;;;;;;;;;;17.36;49.67;100969.72;5016028;28;1101;-47
2022/09/23 12:16:51;;;;;;;;;;;;;;;17.08;48.78;100982.03;4961194;28;1282;-50
2022/09/23 12:19:38;;;;;;;;;;;;;;;18.11;49.17;100963.59;5019352;28;1145;-50
2022/09/23 12:22:12;;;;;;;;;;;;;;;17.35;49.69;100961.72;5019777;28;1199;-46
2022/09/23 12:24:58;;;;;;;;;;;;;;;17.13;48.66;100964.75;5020122;28;884;-49
2022/09/23 12:27:31;;;;;;;;;;;;;;;17.88;49.22;100965.00;5002408;28;1261;-49
2022/09/23 12:29:58;;;;;;;;;;;;;;;17.62;49.67;100955.97;5020326;28;1120;-46
2022/09/23 12:32:24;;;;;;;;;;;;;;;17.29;48.83;100955.41;5002538;28;2055;-48
2022/09/23 12:34:50;;;;;;;;;;;;;;;17.13;48.08;100953.75;5019235;28;1152;-50
2022/09/23 12:37:23;;;;;;;;;;;;;;;17.79;49.05;100956.50;5006018;28;1081;-50
2022/09/23 12:39:48;;;;;;;;;;;;;;;17.28;49.17;100959.28;5002764;28;1196;-49
2022/09/23 12:42:15;;;;;;;;;;;;;;;17.07;48.33;100966.66;5018216;28;1371;-46
2022/09/23 12:44:42;;;;;;;;;;;;;;;18.27;48.72;100958.88;5002069;28;1124;-48
2022/09/23 12:47:13;;;;;;;;;;;;;;;17.44;49.55;100957.34;5019275;28;1168;-50
2022/09/23 12:49:39;;;;;;;;;;;;;;;17.22;48.80;100952.94;5019112;28;1132;-48
2022/09/23 12:52:10;;;;;;;;;;;;;;;17.10;47.75;100950.44;5019224;28;1910;-46
2022/09/23 12:54:37;;;;;;;;;;;;;;;17.98;48.78;100953.19;5019401;28;1153;-49
2022/09/23 12:57:03;;;;;;;;;;;;;;;17.32;49.14;100946.63;5019786;28;1303;-48
2022/09/23 12:59:29;;;;;;;;;;;;;;;17.90;49.25;100945.47;5001400;28;1121;-48
2022/09/23 13:01:55;;;;;;;;;;;;;;;16.09;54.02;100944.31;5019061;28;1255;-45
2022/09/23 13:07:21;;;;;;;;;;;;;;;18.24;50.57;100961.38;5019314;28;1187;-48
2022/09/23 13:09:48;;;;;;;;;;;;;;;14.70;58.24;100954.94;5019028;28;1330;-49